createdAt,value
2023-01-13T00:01:25.894Z,14.19
2023-01-13T00:03:53.566Z,14.21
2023-01-13T00:06:22.539Z,14.26
2023-01-13T00:08:51.924Z,14.29
2023-01-13T00:11:20.711Z,14.21
2023-01-13T00:13:48.022Z,14.19
2023-01-13T00:16:17.866Z,14.30
2023-01-13T00:18:45.393Z,14.29
2023-01-13T00:21:15.213Z,14.37
2023-01-13T00:23:43.740Z,14.30
2023-01-13T00:26:13.967Z,14.30
2023-01-13T00:28:41.262Z,14.29
2023-01-13T00:31:11.057Z,14.18
2023-01-13T00:33:38.564Z,14.15
2023-01-13T00:36:07.434Z,14.16
2023-01-13T00:38:36.750Z,14.23
2023-01-13T00:41:06.530Z,14.15
2023-01-13T00:43:37.065Z,14.22
2023-01-13T00:46:05.701Z,14.21
2023-01-13T00:48:33.919Z,14.23
2023-01-13T00:51:03.420Z,14.28
2023-01-13T00:53:34.410Z,14.33
2023-01-13T00:56:02.156Z,14.34
2023-01-13T00:58:32.426Z,14.44
2023-01-13T01:01:02.364Z,14.37
2023-01-13T01:03:30.082Z,14.37
2023-01-13T01:05:57.968Z,14.39
2023-01-13T01:08:25.295Z,14.40
2023-01-13T01:11:01.384Z,14.43
2023-01-13T01:13:29.101Z,14.43
2023-01-13T01:15:56.478Z,14.41
2023-01-13T01:18:25.717Z,14.53
2023-01-13T01:20:53.000Z,14.47
2023-01-13T01:23:20.376Z,14.41
2023-01-13T01:25:47.660Z,14.44
2023-01-13T01:28:14.921Z,14.46
2023-01-13T01:30:42.810Z,14.50
2023-01-13T01:33:10.083Z,14.44
2023-01-13T01:35:41.375Z,14.46
2023-01-13T01:38:09.073Z,14.50
2023-01-13T01:40:36.568Z,14.55
2023-01-13T01:43:32.548Z,14.50
2023-01-13T01:45:59.950Z,14.55
2023-01-13T01:48:28.372Z,14.56
2023-01-13T01:50:57.309Z,14.56
2023-01-13T01:53:27.301Z,14.56
2023-01-13T01:55:56.056Z,14.47
2023-01-13T01:58:29.132Z,14.47
2023-01-13T02:00:56.513Z,14.46
2023-01-13T02:03:24.302Z,14.55
2023-01-13T02:05:52.551Z,14.44
2023-01-13T02:08:21.222Z,14.47
2023-01-13T02:10:53.584Z,14.56
2023-01-13T02:13:22.674Z,14.37
2023-01-13T02:15:58.125Z,14.37
2023-01-13T02:18:45.268Z,14.44
2023-01-13T02:21:43.342Z,14.49
2023-01-13T02:24:54.743Z,14.56
2023-01-13T02:27:44.059Z,14.41
2023-01-13T02:30:40.712Z,14.55
2023-01-13T02:33:19.877Z,14.51
2023-01-13T02:35:51.576Z,14.56
2023-01-13T02:38:23.769Z,14.49
2023-01-13T02:40:58.652Z,14.50
2023-01-13T02:43:49.565Z,14.40
2023-01-13T02:46:24.864Z,14.44
2023-01-13T02:48:54.389Z,14.51
2023-01-13T02:51:27.004Z,14.44
2023-01-13T02:53:59.753Z,14.37
2023-01-13T02:56:27.949Z,14.37
2023-01-13T02:58:56.804Z,14.36
2023-01-13T03:01:25.913Z,14.37
2023-01-13T03:03:53.286Z,14.22
2023-01-13T03:06:37.041Z,14.28
2023-01-13T03:09:09.629Z,14.25
2023-01-13T03:11:48.716Z,14.25
2023-01-13T03:14:30.153Z,14.26
2023-01-13T03:17:12.196Z,14.25
2023-01-13T03:19:44.475Z,14.28
2023-01-13T03:22:18.962Z,14.15
2023-01-13T03:24:50.697Z,14.19
2023-01-13T03:27:23.409Z,14.22
2023-01-13T03:29:58.072Z,14.22
2023-01-13T03:32:29.799Z,14.16
2023-01-13T03:35:03.142Z,14.18
2023-01-13T03:37:34.246Z,14.28
2023-01-13T03:40:08.105Z,14.15
2023-01-13T03:42:38.278Z,14.25
2023-01-13T03:45:10.684Z,14.21
2023-01-13T03:47:44.673Z,14.32
2023-01-13T03:50:17.700Z,14.28
2023-01-13T03:52:48.926Z,14.37
2023-01-13T03:55:21.034Z,14.26
2023-01-13T03:57:54.551Z,14.25
2023-01-13T04:00:27.184Z,14.22
2023-01-13T04:03:01.134Z,14.33
2023-01-13T04:05:30.160Z,14.22
2023-01-13T04:08:06.723Z,14.30
2023-01-13T04:10:38.566Z,14.43
2023-01-13T04:13:08.939Z,14.39
2023-01-13T04:15:38.989Z,14.66
2023-01-13T04:18:13.057Z,14.51
2023-01-13T04:20:41.661Z,14.55
2023-01-13T04:23:10.142Z,14.51
2023-01-13T04:25:38.072Z,14.49
2023-01-13T04:28:05.566Z,14.57
2023-01-13T04:30:32.970Z,14.78
2023-01-13T04:33:00.195Z,14.55
2023-01-13T04:35:28.900Z,14.61
2023-01-13T04:37:56.224Z,14.47
2023-01-13T04:40:23.663Z,14.55
2023-01-13T04:42:50.961Z,14.46
2023-01-13T04:45:18.177Z,14.46
2023-01-13T04:47:45.991Z,15.01
2023-01-13T04:50:13.307Z,16.26
2023-01-13T04:52:42.039Z,16.99
2023-01-13T04:55:10.578Z,17.11
2023-01-13T04:57:37.924Z,16.26
2023-01-13T05:00:07.997Z,16.29
2023-01-13T05:02:35.207Z,16.08
2023-01-13T05:05:02.478Z,16.33
2023-01-13T05:07:29.798Z,16.01
2023-01-13T05:09:59.819Z,15.71
2023-01-13T05:12:59.547Z,15.54
2023-01-13T05:15:45.354Z,15.35
2023-01-13T05:18:13.128Z,15.18
2023-01-13T05:20:40.566Z,15.25
2023-01-13T05:23:29.202Z,15.46
2023-01-13T05:25:57.963Z,15.25
2023-01-13T05:28:25.498Z,14.98
2023-01-13T05:30:53.049Z,14.81
2023-01-13T05:33:20.842Z,14.89
2023-01-13T05:35:49.326Z,14.89
2023-01-13T05:38:18.137Z,14.80
2023-01-13T05:41:04.437Z,14.80
2023-01-13T05:43:35.036Z,14.88
2023-01-13T05:46:04.393Z,14.94
2023-01-13T05:48:33.874Z,15.04
2023-01-13T05:51:02.418Z,15.04
2023-01-13T05:53:30.406Z,15.47
2023-01-13T05:55:57.841Z,15.05
2023-01-13T05:58:27.771Z,14.78
2023-01-13T06:01:00.924Z,14.97
2023-01-13T06:03:28.266Z,14.99
2023-01-13T06:06:02.351Z,14.95
2023-01-13T06:08:30.184Z,16.15
2023-01-13T06:10:57.652Z,15.54
2023-01-13T06:13:25.570Z,15.21
2023-01-13T06:15:56.703Z,15.14
2023-01-13T06:18:25.889Z,15.43
2023-01-13T06:20:53.178Z,15.74
2023-01-13T06:23:22.683Z,15.60
2023-01-13T06:25:56.738Z,15.49
2023-01-13T06:28:24.705Z,15.69
2023-01-13T06:30:56.380Z,16.47
2023-01-13T06:33:29.465Z,17.79
2023-01-13T06:36:00.803Z,18.38
2023-01-13T06:38:31.058Z,18.89
2023-01-13T06:40:58.364Z,19.13
2023-01-13T06:43:26.152Z,19.26
2023-01-13T06:45:55.569Z,19.46
2023-01-13T06:48:33.230Z,20.15
2023-01-13T06:51:07.787Z,21.15
2023-01-13T06:53:35.179Z,21.26
2023-01-13T06:56:02.484Z,21.29
2023-01-13T06:58:29.823Z,21.31
2023-01-13T07:01:00.749Z,21.46
2023-01-13T07:03:29.676Z,21.49
2023-01-13T07:05:57.137Z,21.28
2023-01-13T07:08:25.033Z,21.45
2023-01-13T07:10:53.196Z,21.53
2023-01-13T07:14:28.858Z,21.63
2023-01-13T07:16:56.118Z,21.61
2023-01-13T07:19:24.869Z,21.31
2023-01-13T07:21:52.804Z,21.35
2023-01-13T07:24:20.737Z,21.42
2023-01-13T07:26:48.231Z,21.53
2023-01-13T07:29:18.650Z,21.56
2023-01-13T07:31:48.303Z,21.64
2023-01-13T07:34:17.474Z,21.69
2023-01-13T07:36:46.398Z,21.59
2023-01-13T07:39:13.637Z,21.59
2023-01-13T07:42:01.154Z,21.59
2023-01-13T07:44:32.758Z,21.60
2023-01-13T07:47:00.165Z,21.54
2023-01-13T07:49:30.188Z,21.59
2023-01-13T07:51:59.163Z,21.59
2023-01-13T07:54:51.565Z,21.56
2023-01-13T07:57:18.884Z,21.49
2023-01-13T07:59:46.491Z,21.47
2023-01-13T08:02:14.435Z,21.46
2023-01-13T08:04:43.101Z,21.39
2023-01-13T08:07:12.045Z,21.31
2023-01-13T08:09:39.508Z,21.38
2023-01-13T08:12:36.342Z,21.35
2023-01-13T08:15:12.240Z,21.19
2023-01-13T08:17:39.980Z,21.43
2023-01-13T08:20:09.632Z,21.38
2023-01-13T08:22:38.522Z,21.50
2023-01-13T08:25:08.620Z,21.74
2023-01-13T08:27:36.115Z,22.01
2023-01-13T08:30:04.676Z,22.08
2023-01-13T08:32:35.558Z,22.17
2023-01-13T08:35:03.017Z,22.15
2023-01-13T08:37:30.545Z,22.17
2023-01-13T08:40:00.510Z,21.66
2023-01-13T08:42:29.462Z,21.76
2023-01-13T08:44:59.811Z,21.76
2023-01-13T08:47:28.258Z,21.70
2023-01-13T08:49:58.987Z,21.80
2023-01-13T08:52:27.010Z,21.87
2023-01-13T08:55:02.850Z,21.87
2023-01-13T08:57:30.591Z,21.80
2023-01-13T08:59:58.953Z,21.77
2023-01-13T09:02:27.363Z,21.71
2023-01-13T09:05:01.252Z,21.70
2023-01-13T09:07:45.310Z,21.50
2023-01-13T09:10:24.655Z,21.49
2023-01-13T09:13:11.189Z,21.61
2023-01-13T09:15:40.170Z,21.46
2023-01-13T09:18:08.396Z,21.54
2023-01-13T09:20:42.211Z,21.66
2023-01-13T09:23:11.432Z,21.87
2023-01-13T09:25:41.661Z,21.83
2023-01-13T09:28:09.099Z,21.70
2023-01-13T09:30:38.462Z,21.84
2023-01-13T09:33:24.706Z,21.90
2023-01-13T09:35:52.205Z,21.87
2023-01-13T09:38:57.307Z,21.81
2023-01-13T09:42:33.299Z,21.67
2023-01-13T09:45:06.096Z,21.66
2023-01-13T09:48:02.738Z,21.66
2023-01-13T09:50:57.408Z,21.93
2023-01-13T09:53:33.140Z,22.26
2023-01-13T09:56:03.129Z,22.35
2023-01-13T09:58:47.166Z,22.25
2023-01-13T10:04:21.850Z,22.36
2023-01-13T10:07:09.031Z,22.41
2023-01-13T10:09:53.895Z,22.45
2023-01-13T10:17:05.337Z,22.31
2023-01-13T10:27:22.940Z,22.46
2023-01-13T10:29:55.712Z,22.51
2023-01-13T10:32:51.282Z,22.51
2023-01-13T10:35:18.949Z,22.48
2023-01-13T10:37:57.856Z,22.46
2023-01-13T10:40:34.415Z,22.46
2023-01-13T10:43:06.764Z,22.48
2023-01-13T10:45:34.321Z,22.29
2023-01-13T10:48:50.222Z,22.35
2023-01-13T10:54:05.942Z,22.24
2023-01-13T10:59:34.559Z,22.14
2023-01-13T11:02:24.819Z,22.26
2023-01-13T11:05:15.559Z,22.42
2023-01-13T11:07:50.668Z,22.35
2023-01-13T11:10:22.462Z,22.46
2023-01-13T11:13:11.327Z,22.53
2023-01-13T11:15:47.513Z,22.51
2023-01-13T11:23:00.453Z,22.56
2023-01-13T11:25:55.039Z,22.74
2023-01-13T11:29:36.039Z,22.57
2023-01-13T11:32:14.965Z,22.57
2023-01-13T11:34:45.955Z,22.59
2023-01-13T11:37:21.645Z,22.60
2023-01-13T11:39:56.401Z,22.62
2023-01-13T11:42:32.517Z,22.72
2023-01-13T11:45:07.447Z,22.73
2023-01-13T11:47:36.790Z,22.73
2023-01-13T11:50:28.694Z,22.80
2023-01-13T11:58:11.693Z,22.69
2023-01-13T12:01:02.965Z,22.73
2023-01-13T12:03:38.267Z,22.70
2023-01-13T12:06:17.716Z,22.56
2023-01-13T12:09:19.038Z,22.67
2023-01-13T12:12:17.816Z,22.76
2023-01-13T12:15:03.095Z,22.77
2023-01-13T12:17:42.409Z,22.66
2023-01-13T12:20:26.546Z,22.83
2023-01-13T12:23:02.917Z,22.94
2023-01-13T12:32:45.770Z,22.73
2023-01-13T12:35:36.355Z,22.72
2023-01-13T12:38:12.341Z,22.72
2023-01-13T12:41:08.101Z,22.90
2023-01-13T12:44:11.504Z,22.91
2023-01-13T12:47:00.348Z,22.73
2023-01-13T12:53:01.643Z,22.64
2023-01-13T12:55:33.493Z,22.66
2023-01-13T12:58:29.248Z,22.79
2023-01-13T13:01:00.714Z,22.82
2023-01-13T13:07:27.301Z,22.86
2023-01-13T13:10:08.061Z,22.87
2023-01-13T13:13:14.482Z,22.90
2023-01-13T13:15:42.358Z,22.90
2023-01-13T13:18:28.959Z,22.34
2023-01-13T13:21:06.779Z,22.57
2023-01-13T13:23:48.574Z,22.63
2023-01-13T13:26:21.067Z,22.59
2023-01-13T13:29:05.824Z,22.57
2023-01-13T13:31:50.087Z,22.69
2023-01-13T13:34:48.605Z,22.82
2023-01-13T13:37:57.160Z,22.76
2023-01-13T13:40:45.436Z,22.73
2023-01-13T13:43:33.802Z,22.89
2023-01-13T13:54:58.619Z,22.82
2023-01-13T13:57:34.383Z,22.93
2023-01-13T14:00:18.288Z,22.90
2023-01-13T14:02:51.098Z,22.83
2023-01-13T14:05:21.913Z,22.83
2023-01-13T14:07:52.075Z,22.90
2023-01-13T14:10:22.468Z,22.84
2023-01-13T14:12:52.930Z,22.84
2023-01-13T14:15:31.516Z,22.59
2023-01-13T14:18:00.610Z,22.51
2023-01-13T14:20:30.535Z,22.55
2023-01-13T14:23:07.278Z,22.29
2023-01-13T14:25:39.570Z,22.41
2023-01-13T14:28:28.907Z,22.45
2023-01-13T14:30:57.517Z,22.42
2023-01-13T14:33:34.247Z,22.29
2023-01-13T14:36:14.011Z,22.14
2023-01-13T14:38:43.030Z,22.07
2023-01-13T14:42:01.344Z,22.17
2023-01-13T14:44:36.765Z,22.08
2023-01-13T14:47:24.000Z,22.11
2023-01-13T14:50:01.203Z,22.02
2023-01-13T14:52:34.845Z,21.98
2023-01-13T14:55:22.236Z,21.98
2023-01-13T14:57:49.868Z,21.93
2023-01-13T15:00:23.917Z,21.90
2023-01-13T15:03:07.763Z,21.77
2023-01-13T15:05:47.793Z,21.78
2023-01-13T15:08:36.426Z,21.86
2023-01-13T15:11:06.722Z,21.88
2023-01-13T15:13:42.564Z,21.84
2023-01-13T15:16:18.019Z,21.84
2023-01-13T15:18:45.819Z,21.87
2023-01-13T15:21:15.683Z,21.84
2023-01-13T15:23:43.407Z,21.73
2023-01-13T15:26:19.451Z,21.74
2023-01-13T15:28:47.397Z,21.74
2023-01-13T15:31:16.353Z,21.66
2023-01-13T15:33:43.829Z,21.66
2023-01-13T15:36:20.936Z,21.64
2023-01-13T15:38:49.330Z,21.63
2023-01-13T15:41:17.118Z,21.64
2023-01-13T15:44:02.855Z,21.64
2023-01-13T15:46:40.595Z,21.56
2023-01-13T15:49:17.304Z,21.64
2023-01-13T15:51:45.161Z,21.57
2023-01-13T15:54:12.859Z,21.56
2023-01-13T15:56:42.216Z,21.53
2023-01-13T15:59:17.610Z,21.50
2023-01-13T16:01:46.576Z,21.56
2023-01-13T16:04:13.968Z,21.56
2023-01-13T16:06:41.486Z,21.53
2023-01-13T16:09:12.744Z,21.59
2023-01-13T16:11:40.098Z,21.56
2023-01-13T16:14:07.478Z,21.56
2023-01-13T16:16:37.291Z,21.59
2023-01-13T16:19:06.449Z,21.51
2023-01-13T16:21:33.824Z,21.53
2023-01-13T16:24:01.120Z,21.59
2023-01-13T16:26:30.153Z,21.61
2023-01-13T16:28:58.844Z,21.64
2023-01-13T16:31:29.228Z,21.59
2023-01-13T16:33:56.762Z,21.54
2023-01-13T16:36:25.671Z,21.53
2023-01-13T16:38:53.764Z,21.54
2023-01-13T16:41:22.077Z,21.53
2023-01-13T16:43:49.505Z,21.33
2023-01-13T16:46:23.259Z,21.11
2023-01-13T16:48:53.169Z,21.05
2023-01-13T16:51:21.237Z,20.90
2023-01-13T16:53:50.780Z,21.01
2023-01-13T16:56:23.257Z,21.16
2023-01-13T16:58:51.452Z,21.25
2023-01-13T17:01:21.907Z,21.26
2023-01-13T17:03:49.847Z,21.25
2023-01-13T17:06:20.246Z,21.33
2023-01-13T17:09:02.977Z,21.31
2023-01-13T17:11:31.946Z,21.33
2023-01-13T17:14:00.011Z,21.35
2023-01-13T17:16:28.328Z,21.32
2023-01-13T17:18:55.972Z,21.33
2023-01-13T17:21:23.337Z,21.05
2023-01-13T17:23:51.691Z,21.01
2023-01-13T17:26:32.450Z,21.15
2023-01-13T17:29:00.843Z,21.28
2023-01-13T17:31:29.690Z,21.28
2023-01-13T17:33:57.126Z,21.26
2023-01-13T17:36:25.794Z,21.23
2023-01-13T17:38:53.218Z,21.33
2023-01-13T17:41:21.043Z,21.36
2023-01-13T17:43:49.793Z,21.38
2023-01-13T17:46:19.471Z,21.40
2023-01-13T17:48:47.222Z,21.32
2023-01-13T17:51:16.652Z,21.25
2023-01-13T17:53:45.698Z,21.25
2023-01-13T17:56:14.944Z,21.25
2023-01-13T17:58:42.818Z,21.18
2023-01-13T18:01:15.165Z,21.21
2023-01-13T18:03:42.856Z,21.22
2023-01-13T18:06:16.375Z,21.19
2023-01-13T18:08:44.133Z,21.16
2023-01-13T18:11:11.474Z,21.25
2023-01-13T18:13:41.378Z,21.25
2023-01-13T18:16:13.154Z,21.19
2023-01-13T18:18:43.485Z,21.13
2023-01-13T18:21:36.699Z,21.19
2023-01-13T18:24:23.049Z,21.19
2023-01-13T18:27:09.112Z,21.15
2023-01-13T18:29:37.629Z,21.13
2023-01-13T18:32:07.695Z,21.09
2023-01-13T18:34:37.074Z,21.18
2023-01-13T18:37:05.622Z,21.28
2023-01-13T18:39:34.855Z,21.28
2023-01-13T18:42:20.875Z,21.25
2023-01-13T18:44:48.274Z,21.25
2023-01-13T18:47:16.152Z,21.21
2023-01-13T18:49:45.657Z,21.12
2023-01-13T18:52:13.334Z,21.08
2023-01-13T18:54:40.741Z,21.11
2023-01-13T18:57:08.371Z,21.13
2023-01-13T18:59:37.049Z,21.08
2023-01-13T19:02:09.257Z,21.28
2023-01-13T19:04:37.165Z,21.31
2023-01-13T19:07:06.120Z,21.33
2023-01-13T19:09:34.236Z,21.29
2023-01-13T19:12:01.748Z,21.23
2023-01-13T19:14:37.547Z,21.16
2023-01-13T19:17:09.424Z,21.11
2023-01-13T19:19:40.706Z,21.13
2023-01-13T19:22:10.735Z,21.06
2023-01-13T19:24:41.942Z,21.05
2023-01-13T19:27:09.934Z,21.02
2023-01-13T19:29:37.427Z,20.84
2023-01-13T19:32:11.464Z,20.90
2023-01-13T19:34:39.522Z,21.09
2023-01-13T19:37:07.111Z,21.12
2023-01-13T19:39:36.533Z,21.15
2023-01-13T19:42:22.302Z,21.16
2023-01-13T19:45:08.321Z,21.16
2023-01-13T19:47:36.800Z,21.15
2023-01-13T19:50:08.565Z,21.16
2023-01-13T19:52:35.987Z,20.98
2023-01-13T19:55:07.602Z,20.94
2023-01-13T19:57:35.002Z,20.90
2023-01-13T20:00:05.406Z,20.90
2023-01-13T20:02:33.102Z,21.02
2023-01-13T20:05:02.120Z,21.09
2023-01-13T20:07:31.246Z,20.94
2023-01-13T20:09:59.043Z,20.99
2023-01-13T20:12:28.797Z,20.94
2023-01-13T20:14:56.276Z,20.90
2023-01-13T20:17:25.707Z,20.78
2023-01-13T20:19:53.956Z,20.84
2023-01-13T20:22:21.559Z,20.83
2023-01-13T20:24:55.009Z,20.83
2023-01-13T20:27:24.472Z,20.83
2023-01-13T20:29:53.547Z,20.90
2023-01-13T20:32:20.975Z,20.94
2023-01-13T20:34:48.530Z,20.90
2023-01-13T20:37:15.917Z,20.84
2023-01-13T20:39:47.115Z,20.85
2023-01-13T20:42:30.180Z,20.85
2023-01-13T20:45:00.375Z,20.87
2023-01-13T20:47:28.852Z,20.78
2023-01-13T20:49:56.918Z,20.75
2023-01-13T20:52:24.784Z,20.74
2023-01-13T20:54:52.144Z,20.80
2023-01-13T20:57:19.699Z,20.74
2023-01-13T20:59:54.131Z,20.68
2023-01-13T21:02:24.507Z,20.77
2023-01-13T21:04:52.004Z,20.70
2023-01-13T21:07:21.224Z,20.64
2023-01-13T21:09:48.681Z,20.61
2023-01-13T21:12:35.300Z,20.67
2023-01-13T21:15:18.091Z,20.77
2023-01-13T21:18:07.082Z,20.75
2023-01-13T21:20:36.082Z,20.95
2023-01-13T21:23:04.310Z,20.90
2023-01-13T21:25:33.967Z,20.84
2023-01-13T21:28:11.363Z,20.80
2023-01-13T21:30:39.486Z,20.75
2023-01-13T21:33:08.374Z,20.75
2023-01-13T21:35:38.972Z,20.73
2023-01-13T21:38:07.000Z,20.65
2023-01-13T21:40:34.567Z,20.68
2023-01-13T21:43:20.521Z,20.64
2023-01-13T21:46:06.399Z,20.57
2023-01-13T21:48:35.226Z,20.65
2023-01-13T21:51:02.527Z,20.70
2023-01-13T21:53:29.866Z,20.73
2023-01-13T21:55:57.227Z,20.65
2023-01-13T21:58:24.748Z,20.61
2023-01-13T22:00:52.390Z,20.63
2023-01-13T22:03:19.858Z,20.58
2023-01-13T22:05:53.691Z,20.63
2023-01-13T22:08:20.969Z,20.51
2023-01-13T22:10:57.904Z,20.56
2023-01-13T22:13:44.819Z,20.58
2023-01-13T22:16:12.297Z,20.48
2023-01-13T22:18:39.649Z,20.47
2023-01-13T22:21:08.770Z,20.56
2023-01-13T22:23:36.143Z,20.60
2023-01-13T22:26:04.401Z,20.67
2023-01-13T22:28:40.489Z,20.65
2023-01-13T22:31:09.605Z,20.73
2023-01-13T22:33:37.202Z,20.61
2023-01-13T22:36:05.071Z,20.60
2023-01-13T22:38:35.101Z,20.54
2023-01-13T22:41:04.402Z,20.70
2023-01-13T22:43:31.702Z,20.75
2023-01-13T22:46:00.017Z,20.63
2023-01-13T22:48:27.809Z,20.68
2023-01-13T22:50:56.589Z,20.63
2023-01-13T22:53:24.067Z,20.56
2023-01-13T22:55:56.567Z,20.57
2023-01-13T22:58:24.073Z,20.56
2023-01-13T23:00:51.790Z,20.64
2023-01-13T23:03:19.521Z,20.51
2023-01-13T23:05:46.926Z,20.46
2023-01-13T23:08:14.718Z,20.56
2023-01-13T23:10:42.161Z,20.54
2023-01-13T23:13:11.345Z,20.50
2023-01-13T23:15:38.700Z,20.58
2023-01-13T23:18:06.126Z,20.60
2023-01-13T23:20:34.230Z,20.50
2023-01-13T23:23:01.624Z,20.47
2023-01-13T23:25:28.993Z,20.51
2023-01-13T23:27:56.515Z,20.50
2023-01-13T23:30:25.260Z,20.47
2023-01-13T23:32:52.937Z,20.48
2023-01-13T23:35:20.317Z,20.47
2023-01-13T23:37:47.656Z,20.44
2023-01-13T23:40:15.141Z,20.41
2023-01-13T23:42:42.676Z,20.46
2023-01-13T23:45:11.625Z,20.50
2023-01-13T23:47:41.269Z,20.50
2023-01-13T23:50:10.419Z,20.53
2023-01-13T23:52:37.824Z,20.60
2023-01-13T23:55:05.996Z,20.65
2023-01-13T23:57:33.440Z,20.68
